createdAt,value
2018-05-12T00:00:21.696Z,1014.49
2018-05-12T00:01:02.252Z,1014.52
2018-05-12T00:01:42.837Z,1014.47
2018-05-12T00:02:23.431Z,1014.55
2018-05-12T00:03:04.017Z,1014.51
2018-05-12T00:03:44.601Z,1014.48
2018-05-12T00:04:25.198Z,1014.52
2018-05-12T00:05:05.788Z,1014.51
2018-05-12T00:05:46.492Z,1014.53
2018-05-12T00:06:26.921Z,1014.49
2018-05-12T00:07:07.483Z,1014.48
2018-05-12T00:07:48.035Z,1014.48
2018-05-12T00:08:28.583Z,1014.48
2018-05-12T00:09:09.136Z,1014.48
2018-05-12T00:09:49.687Z,1014.51
2018-05-12T00:10:30.235Z,1014.49
2018-05-12T00:11:10.816Z,1014.51
2018-05-12T00:11:51.403Z,1014.5
2018-05-12T00:12:31.974Z,1014.46
2018-05-12T00:13:12.539Z,1014.47
2018-05-12T00:13:53.107Z,1014.46
2018-05-12T00:14:33.668Z,1014.44
2018-05-12T00:15:14.282Z,1014.45
2018-05-12T00:15:54.839Z,1014.45
2018-05-12T00:16:35.395Z,1014.47
2018-05-12T00:17:15.956Z,1014.43
2018-05-12T00:17:56.528Z,1014.45
2018-05-12T00:18:37.080Z,1014.46
2018-05-12T00:19:17.660Z,1014.42
2018-05-12T00:19:58.186Z,1014.42
2018-05-12T00:20:38.742Z,1014.41
2018-05-12T00:21:19.330Z,1014.4
2018-05-12T00:21:59.881Z,1014.43
2018-05-12T00:22:40.451Z,1014.41
2018-05-12T00:23:21.000Z,1014.42
2018-05-12T00:24:01.568Z,1014.4
2018-05-12T00:24:42.122Z,1014.38
2018-05-12T00:25:22.686Z,1014.39
2018-05-12T00:26:03.257Z,1014.41
2018-05-12T00:26:43.832Z,1014.4
2018-05-12T00:27:24.409Z,1014.39
2018-05-12T00:28:04.976Z,1014.38
2018-05-12T00:28:45.525Z,1014.41
2018-05-12T00:29:26.083Z,1014.36
2018-05-12T00:30:06.622Z,1014.41
2018-05-12T00:30:47.179Z,1014.39
2018-05-12T00:31:27.738Z,1014.4
2018-05-12T00:32:08.307Z,1014.37
2018-05-12T00:32:48.871Z,1014.38
2018-05-12T00:33:29.420Z,1014.39
2018-05-12T00:34:09.959Z,1014.42
2018-05-12T00:34:50.521Z,1014.36
2018-05-12T00:35:31.080Z,1014.39
2018-05-12T00:36:11.653Z,1014.41
2018-05-12T00:36:52.220Z,1014.39
2018-05-12T00:37:32.795Z,1014.38
2018-05-12T00:38:13.348Z,1014.38
2018-05-12T00:38:53.930Z,1014.37
2018-05-12T00:39:34.511Z,1014.37
2018-05-12T00:40:15.072Z,1014.35
2018-05-12T00:40:55.627Z,1014.36
2018-05-12T00:41:36.191Z,1014.38
2018-05-12T00:42:16.771Z,1014.34
2018-05-12T00:42:57.434Z,1014.32
2018-05-12T00:43:37.914Z,1014.31
2018-05-12T00:44:18.496Z,1014.33
2018-05-12T00:44:59.099Z,1014.29
2018-05-12T00:45:39.664Z,1014.31
2018-05-12T00:46:20.233Z,1014.29
2018-05-12T00:47:00.794Z,1014.33
2018-05-12T00:47:41.343Z,1014.32
2018-05-12T00:48:21.894Z,1014.32
2018-05-12T00:49:02.441Z,1014.32
2018-05-12T00:49:42.997Z,1014.35
2018-05-12T00:50:23.562Z,1014.32
2018-05-12T00:51:04.137Z,1014.34
2018-05-12T00:51:44.688Z,1014.33
2018-05-12T00:52:25.224Z,1014.34
2018-05-12T00:53:05.787Z,1014.33
2018-05-12T00:53:46.354Z,1014.33
2018-05-12T00:54:26.915Z,1014.31
2018-05-12T00:55:07.472Z,1014.33
2018-05-12T00:55:48.064Z,1014.31
2018-05-12T00:56:28.619Z,1014.33
2018-05-12T00:57:09.191Z,1014.31
2018-05-12T00:57:49.751Z,1014.3
2018-05-12T00:58:30.322Z,1014.31
2018-05-12T00:59:10.877Z,1014.28
2018-05-12T00:59:51.433Z,1014.25
2018-05-12T01:00:32.009Z,1014.29
2018-05-12T01:01:12.549Z,1014.23
2018-05-12T01:01:53.116Z,1014.21
2018-05-12T01:02:33.693Z,1014.26
2018-05-12T01:03:14.269Z,1014.28
2018-05-12T01:03:54.831Z,1014.27
2018-05-12T01:04:35.389Z,1014.25
2018-05-12T01:05:15.941Z,1014.27
2018-05-12T01:05:56.553Z,1014.23
2018-05-12T01:06:37.170Z,1014.24
2018-05-12T01:07:17.723Z,1014.26
2018-05-12T01:07:58.295Z,1014.26
2018-05-12T01:08:38.860Z,1014.26
2018-05-12T01:09:19.558Z,1014.21
2018-05-12T01:10:00.115Z,1014.23
2018-05-12T01:10:40.672Z,1014.23
2018-05-12T01:11:21.246Z,1014.25
2018-05-12T01:12:01.796Z,1014.23
2018-05-12T01:12:42.356Z,1014.24
2018-05-12T01:13:22.892Z,1014.24
2018-05-12T01:14:03.443Z,1014.28
2018-05-12T01:14:43.983Z,1014.24
2018-05-12T01:15:24.546Z,1014.26
2018-05-12T01:16:05.108Z,1014.24
2018-05-12T01:16:45.719Z,1014.23
2018-05-12T01:17:26.272Z,1014.24
2018-05-12T01:18:06.842Z,1014.23
2018-05-12T01:18:47.396Z,1014.19
2018-05-12T01:19:27.954Z,1014.22
2018-05-12T01:20:08.516Z,1014.22
2018-05-12T01:20:49.088Z,1014.23
2018-05-12T01:21:29.647Z,1014.23
2018-05-12T01:22:10.223Z,1014.2
2018-05-12T01:22:50.787Z,1014.18
2018-05-12T01:23:31.361Z,1014.15
2018-05-12T01:24:11.918Z,1014.18
2018-05-12T01:24:52.488Z,1014.2
2018-05-12T01:25:33.053Z,1014.19
2018-05-12T01:26:13.606Z,1014.17
2018-05-12T01:26:54.218Z,1014.19
2018-05-12T01:27:34.779Z,1014.15
2018-05-12T01:28:15.331Z,1014.14
2018-05-12T01:28:55.894Z,1014.19
2018-05-12T01:29:36.442Z,1014.15
2018-05-12T01:30:17.030Z,1014.16
2018-05-12T01:30:57.597Z,1014.17
2018-05-12T01:31:38.166Z,1014.17
2018-05-12T01:32:18.728Z,1014.17
2018-05-12T01:32:59.295Z,1014.17
2018-05-12T01:33:39.876Z,1014.13
2018-05-12T01:34:20.422Z,1014.15
2018-05-12T01:35:00.999Z,1014.18
2018-05-12T01:35:41.554Z,1014.16
2018-05-12T01:36:22.136Z,1014.18
2018-05-12T01:37:02.695Z,1014.15
2018-05-12T01:37:43.257Z,1014.15
2018-05-12T01:38:23.833Z,1014.15
2018-05-12T01:39:04.384Z,1014.17
2018-05-12T01:39:44.968Z,1014.14
2018-05-12T01:40:25.506Z,1014.15
2018-05-12T01:41:06.080Z,1014.12
2018-05-12T01:41:46.671Z,1014.13
2018-05-12T01:42:27.220Z,1014.12
2018-05-12T01:43:07.758Z,1014.14
2018-05-12T01:43:48.331Z,1014.12
2018-05-12T01:44:28.892Z,1014.16
2018-05-12T01:45:09.489Z,1014.15
2018-05-12T01:45:50.036Z,1014.1
2018-05-12T01:46:30.585Z,1014.11
2018-05-12T01:47:11.153Z,1014.11
2018-05-12T01:47:51.738Z,1014.11
2018-05-12T01:48:32.291Z,1014.13
2018-05-12T01:49:12.844Z,1014.12
2018-05-12T01:49:53.458Z,1014.11
2018-05-12T01:50:34.041Z,1014.14
2018-05-12T01:51:14.577Z,1014.13
2018-05-12T01:51:55.103Z,1014.09
2018-05-12T01:52:35.713Z,1014.1
2018-05-12T01:53:16.284Z,1014.11
2018-05-12T01:53:56.847Z,1014.09
2018-05-12T01:54:37.414Z,1014.11
2018-05-12T01:55:18.007Z,1014.14
2018-05-12T01:55:58.521Z,1014.08
2018-05-12T01:56:39.086Z,1014.1
2018-05-12T01:57:19.652Z,1014.09
2018-05-12T01:58:00.243Z,1014.09
2018-05-12T01:58:40.788Z,1014.07
2018-05-12T01:59:21.355Z,1014.09
2018-05-12T02:00:01.886Z,1014.14
2018-05-12T02:00:42.481Z,1014.1
2018-05-12T02:01:23.067Z,1014.09
2018-05-12T02:02:03.713Z,1014.11
2018-05-12T02:02:44.311Z,1014.09
2018-05-12T02:03:24.881Z,1014.13
2018-05-12T02:04:05.448Z,1014.14
2018-05-12T02:04:46.079Z,1014.11
2018-05-12T02:05:26.653Z,1014.17
2018-05-12T02:06:07.210Z,1014.16
2018-05-12T02:06:47.760Z,1014.18
2018-05-12T02:07:28.327Z,1014.13
2018-05-12T02:08:08.886Z,1014.12
2018-05-12T02:08:49.465Z,1014.14
2018-05-12T02:09:30.052Z,1014.14
2018-05-12T02:10:10.609Z,1014.17
2018-05-12T02:10:51.161Z,1014.15
2018-05-12T02:11:31.701Z,1014.12
2018-05-12T02:12:12.282Z,1014.1
2018-05-12T02:12:52.854Z,1014.15
2018-05-12T02:13:33.416Z,1014.1
2018-05-12T02:14:13.971Z,1014.1
2018-05-12T02:14:54.532Z,1014.09
2018-05-12T02:15:35.092Z,1014.07
2018-05-12T02:16:15.661Z,1014.11
2018-05-12T02:16:56.218Z,1014.1
2018-05-12T02:17:36.804Z,1014.13
2018-05-12T02:18:17.384Z,1014.16
2018-05-12T02:18:57.963Z,1014.14
2018-05-12T02:19:38.517Z,1014.15
2018-05-12T02:20:19.066Z,1014.16
2018-05-12T02:20:59.634Z,1014.17
2018-05-12T02:21:40.208Z,1014.16
2018-05-12T02:22:20.745Z,1014.17
2018-05-12T02:23:01.312Z,1014.2
2018-05-12T02:23:41.905Z,1014.16
2018-05-12T02:24:22.472Z,1014.13
2018-05-12T02:25:03.064Z,1014.15
2018-05-12T02:25:43.633Z,1014.13
2018-05-12T02:26:24.261Z,1014.17
2018-05-12T02:27:04.809Z,1014.18
2018-05-12T02:27:45.370Z,1014.19
2018-05-12T02:28:25.905Z,1014.22
2018-05-12T02:29:06.481Z,1014.18
2018-05-12T02:29:47.019Z,1014.18
2018-05-12T02:30:27.723Z,1014.17
2018-05-12T02:31:08.138Z,1014.16
2018-05-12T02:31:48.693Z,1014.16
2018-05-12T02:32:29.232Z,1014.15
2018-05-12T02:33:09.824Z,1014.18
2018-05-12T02:33:50.372Z,1014.17
2018-05-12T02:34:30.960Z,1014.16
2018-05-12T02:35:11.492Z,1014.13
2018-05-12T02:35:52.064Z,1014.17
2018-05-12T02:36:32.622Z,1014.18
2018-05-12T02:37:13.179Z,1014.16
2018-05-12T02:37:53.736Z,1014.19
2018-05-12T02:38:34.284Z,1014.21
2018-05-12T02:39:14.837Z,1014.21
2018-05-12T02:39:55.436Z,1014.2
2018-05-12T02:40:35.996Z,1014.21
2018-05-12T02:41:16.572Z,1014.22
2018-05-12T02:41:57.150Z,1014.23
2018-05-12T02:42:37.829Z,1014.22
2018-05-12T02:43:18.430Z,1014.23
2018-05-12T02:43:58.973Z,1014.24
2018-05-12T02:44:39.524Z,1014.21
2018-05-12T02:45:20.082Z,1014.2
2018-05-12T02:46:00.633Z,1014.23
2018-05-12T02:46:41.210Z,1014.22
2018-05-12T02:47:21.762Z,1014.24
2018-05-12T02:48:02.358Z,1014.2
2018-05-12T02:48:42.933Z,1014.23
2018-05-12T02:49:23.486Z,1014.23
2018-05-12T02:50:04.043Z,1014.22
2018-05-12T02:50:44.609Z,1014.23
2018-05-12T02:51:25.161Z,1014.25
2018-05-12T02:52:05.717Z,1014.22
2018-05-12T02:52:46.265Z,1014.28
2018-05-12T02:53:26.810Z,1014.28
2018-05-12T02:54:07.373Z,1014.22
2018-05-12T02:54:47.947Z,1014.25
2018-05-12T02:55:28.526Z,1014.24
2018-05-12T02:56:09.084Z,1014.25
2018-05-12T02:56:49.634Z,1014.28
2018-05-12T02:57:30.199Z,1014.28
2018-05-12T02:58:10.768Z,1014.23
2018-05-12T02:58:51.314Z,1014.27
2018-05-12T02:59:31.875Z,1014.27
2018-05-12T03:00:12.481Z,1014.24
2018-05-12T03:00:53.030Z,1014.27
2018-05-12T03:01:33.586Z,1014.23
2018-05-12T03:02:14.154Z,1014.22
2018-05-12T03:02:54.707Z,1014.24
2018-05-12T03:03:35.272Z,1014.25
2018-05-12T03:04:15.850Z,1014.24
2018-05-12T03:04:56.400Z,1014.26
2018-05-12T03:05:36.969Z,1014.27
2018-05-12T03:06:17.539Z,1014.24
2018-05-12T03:06:58.115Z,1014.2
2018-05-12T03:07:38.694Z,1014.25
2018-05-12T03:08:19.296Z,1014.23
2018-05-12T03:08:59.852Z,1014.18
2018-05-12T03:09:40.398Z,1014.17
2018-05-12T03:10:20.962Z,1014.2
2018-05-12T03:11:01.521Z,1014.17
2018-05-12T03:11:42.079Z,1014.19
2018-05-12T03:12:22.637Z,1014.18
2018-05-12T03:13:03.209Z,1014.17
2018-05-12T03:13:43.782Z,1014.14
2018-05-12T03:14:24.346Z,1014.16
2018-05-12T03:15:04.908Z,1014.15
2018-05-12T03:15:45.477Z,1014.17
2018-05-12T03:16:26.040Z,1014.19
2018-05-12T03:17:06.589Z,1014.21
2018-05-12T03:17:47.130Z,1014.17
2018-05-12T03:18:27.717Z,1014.19
2018-05-12T03:19:08.277Z,1014.19
2018-05-12T03:19:48.853Z,1014.18
2018-05-12T03:20:29.445Z,1014.2
2018-05-12T03:21:10.001Z,1014.2
2018-05-12T03:21:50.580Z,1014.21
2018-05-12T03:22:31.174Z,1014.22
2018-05-12T03:23:11.745Z,1014.17
2018-05-12T03:23:52.304Z,1014.21
2018-05-12T03:24:32.863Z,1014.25
2018-05-12T03:25:13.438Z,1014.16
2018-05-12T03:25:54.017Z,1014.25
2018-05-12T03:26:34.589Z,1014.23
2018-05-12T03:27:15.163Z,1014.27
2018-05-12T03:27:55.716Z,1014.23
2018-05-12T03:28:36.336Z,1014.26
2018-05-12T03:29:16.888Z,1014.25
2018-05-12T03:29:57.468Z,1014.3
2018-05-12T03:30:38.015Z,1014.26
2018-05-12T03:31:18.588Z,1014.3
2018-05-12T03:31:59.152Z,1014.3
2018-05-12T03:32:39.713Z,1014.29
2018-05-12T03:33:20.287Z,1014.28
2018-05-12T03:34:00.834Z,1014.28
2018-05-12T03:34:41.390Z,1014.31
2018-05-12T03:35:21.967Z,1014.3
2018-05-12T03:36:02.523Z,1014.28
2018-05-12T03:36:43.072Z,1014.23
2018-05-12T03:37:23.621Z,1014.26
2018-05-12T03:38:04.180Z,1014.24
2018-05-12T03:38:44.759Z,1014.28
2018-05-12T03:39:25.301Z,1014.32
2018-05-12T03:40:05.856Z,1014.29
2018-05-12T03:40:46.444Z,1014.29
2018-05-12T03:41:27.029Z,1014.28
2018-05-12T03:42:07.585Z,1014.29
2018-05-12T03:42:48.142Z,1014.33
2018-05-12T03:43:28.710Z,1014.3
2018-05-12T03:44:10.074Z,1014.3
2018-05-12T03:44:50.666Z,1014.29
2018-05-12T03:45:31.547Z,1014.28
2018-05-12T03:46:12.384Z,1014.29
2018-05-12T03:46:53.352Z,1014.31
2018-05-12T03:47:33.936Z,1014.3
2018-05-12T03:48:14.491Z,1014.28
2018-05-12T03:48:55.158Z,1014.27
2018-05-12T03:49:35.962Z,1014.29
2018-05-12T03:50:16.603Z,1014.28
2018-05-12T03:50:57.199Z,1014.28
2018-05-12T03:51:37.793Z,1014.28
2018-05-12T03:52:18.694Z,1014.26
2018-05-12T03:52:59.257Z,1014.27
2018-05-12T03:53:39.899Z,1014.26
2018-05-12T03:54:20.689Z,1014.24
2018-05-12T03:55:01.239Z,1014.23
2018-05-12T03:55:41.796Z,1014.25
2018-05-12T03:56:22.349Z,1014.21
2018-05-12T03:57:02.919Z,1014.22
2018-05-12T03:57:43.481Z,1014.22
2018-05-12T03:58:24.068Z,1014.21
2018-05-12T03:59:04.910Z,1014.2
2018-05-12T03:59:45.649Z,1014.16
2018-05-12T04:00:26.446Z,1014.17
2018-05-12T04:01:07.245Z,1014.21
2018-05-12T04:01:48.042Z,1014.18
2018-05-12T04:02:28.951Z,1014.25
2018-05-12T04:03:09.679Z,1014.22
2018-05-12T04:03:50.333Z,1014.26
2018-05-12T04:04:31.485Z,1014.18
2018-05-12T04:05:12.088Z,1014.17
2018-05-12T04:05:52.657Z,1014.19
2018-05-12T04:06:33.236Z,1014.21
2018-05-12T04:07:13.839Z,1014.22
2018-05-12T04:07:54.422Z,1014.19
2018-05-12T04:08:35.087Z,1014.17
2018-05-12T04:09:15.563Z,1014.19
2018-05-12T04:09:56.113Z,1014.2
2018-05-12T04:10:36.667Z,1014.2
2018-05-12T04:11:17.239Z,1014.23
2018-05-12T04:11:57.807Z,1014.25
2018-05-12T04:12:38.353Z,1014.22
2018-05-12T04:13:18.924Z,1014.21
2018-05-12T04:13:59.514Z,1014.24
2018-05-12T04:14:40.120Z,1014.24
2018-05-12T04:15:20.687Z,1014.24
2018-05-12T04:16:01.278Z,1014.24
2018-05-12T04:16:41.888Z,1014.25
2018-05-12T04:17:22.478Z,1014.28
2018-05-12T04:18:03.041Z,1014.21
2018-05-12T04:18:43.581Z,1014.2
2018-05-12T04:19:24.137Z,1014.24
2018-05-12T04:20:04.728Z,1014.21
2018-05-12T04:20:45.257Z,1014.22
2018-05-12T04:21:25.820Z,1014.24
2018-05-12T04:22:06.388Z,1014.18
2018-05-12T04:22:47.040Z,1014.22
2018-05-12T04:23:27.591Z,1014.19
2018-05-12T04:24:08.158Z,1014.27
2018-05-12T04:24:48.687Z,1014.24
2018-05-12T04:25:29.305Z,1014.2
2018-05-12T04:26:09.865Z,1014.25
2018-05-12T04:26:50.420Z,1014.24
2018-05-12T04:27:30.986Z,1014.24
2018-05-12T04:28:11.599Z,1014.24
2018-05-12T04:28:52.171Z,1014.25
2018-05-12T04:29:32.745Z,1014.23
2018-05-12T04:30:13.345Z,1014.26
2018-05-12T04:30:53.855Z,1014.2
2018-05-12T04:31:34.416Z,1014.23
2018-05-12T04:32:15.018Z,1014.22
2018-05-12T04:32:55.599Z,1014.24
2018-05-12T04:33:36.173Z,1014.2
2018-05-12T04:34:16.766Z,1014.2
2018-05-12T04:34:57.350Z,1014.25
2018-05-12T04:35:37.975Z,1014.22
2018-05-12T04:36:18.534Z,1014.27
2018-05-12T04:36:59.105Z,1014.27
2018-05-12T04:37:39.720Z,1014.27
2018-05-12T04:38:20.262Z,1014.28
2018-05-12T04:39:00.858Z,1014.25
2018-05-12T04:39:41.465Z,1014.28
2018-05-12T04:40:22.041Z,1014.24
2018-05-12T04:41:02.605Z,1014.24
2018-05-12T04:41:43.167Z,1014.22
2018-05-12T04:42:23.768Z,1014.25
2018-05-12T04:43:04.358Z,1014.23
2018-05-12T04:43:44.906Z,1014.22
2018-05-12T04:44:25.591Z,1014.19
2018-05-12T04:45:06.117Z,1014.17
2018-05-12T04:45:46.671Z,1014.16
2018-05-12T04:46:27.308Z,1014.18
2018-05-12T04:47:07.851Z,1014.19
2018-05-12T04:47:50.706Z,1014.13
2018-05-12T04:48:31.307Z,1014.13
2018-05-12T04:49:11.852Z,1014.17
2018-05-12T04:49:52.402Z,1014.13
2018-05-12T04:50:32.965Z,1014.13
2018-05-12T04:51:13.541Z,1014.13
2018-05-12T04:51:54.115Z,1014.15
2018-05-12T04:52:34.676Z,1014.13
2018-05-12T04:53:15.329Z,1014.11
2018-05-12T04:53:55.835Z,1014.1
2018-05-12T04:54:36.388Z,1014.11
2018-05-12T04:55:16.966Z,1014.1
2018-05-12T04:55:57.526Z,1014.1
2018-05-12T04:56:38.118Z,1014.09
2018-05-12T04:57:18.674Z,1014.13
2018-05-12T04:57:59.225Z,1014.1
2018-05-12T04:58:39.804Z,1014.06
2018-05-12T04:59:20.362Z,1014.05
2018-05-12T05:00:00.934Z,1014.06
2018-05-12T05:00:41.506Z,1014.06
2018-05-12T05:01:22.087Z,1014.05
2018-05-12T05:02:02.637Z,1014.07
2018-05-12T05:02:43.194Z,1014.05
2018-05-12T05:03:23.753Z,1014.07
2018-05-12T05:04:04.310Z,1014.03
2018-05-12T05:04:44.871Z,1014.02
2018-05-12T05:05:25.460Z,1014.02
2018-05-12T05:06:06.071Z,1014.01
2018-05-12T05:06:46.644Z,1014.03
2018-05-12T05:07:27.199Z,1014.03
2018-05-12T05:08:07.859Z,1014.02
2018-05-12T05:08:48.326Z,1014.04
2018-05-12T05:09:28.894Z,1014
2018-05-12T05:10:09.463Z,1014
2018-05-12T05:10:50.013Z,1014
2018-05-12T05:11:30.583Z,1013.97
2018-05-12T05:12:11.156Z,1014.01
2018-05-12T05:12:51.695Z,1013.99
2018-05-12T05:13:32.258Z,1013.97
2018-05-12T05:14:12.888Z,1014.01
2018-05-12T05:14:53.436Z,1014.02
2018-05-12T05:15:33.993Z,1014.01
2018-05-12T05:16:14.554Z,1014.03
2018-05-12T05:16:55.128Z,1013.95
2018-05-12T05:17:35.730Z,1014
2018-05-12T05:18:16.334Z,1014.06
2018-05-12T05:18:56.897Z,1014.03
2018-05-12T05:19:37.527Z,1014.03
2018-05-12T05:20:18.151Z,1014.03
2018-05-12T05:20:59.667Z,1014.01
2018-05-12T05:21:40.482Z,1014.03
2018-05-12T05:22:21.031Z,1014.02
2018-05-12T05:23:01.606Z,1014.06
2018-05-12T05:23:42.257Z,1014.03
2018-05-12T05:24:22.837Z,1014.04
2018-05-12T05:25:03.510Z,1014.05
2018-05-12T05:25:44.102Z,1014.03
2018-05-12T05:26:24.666Z,1014
2018-05-12T05:27:05.250Z,1014.03
2018-05-12T05:27:45.820Z,1014.03
2018-05-12T05:28:26.373Z,1014.02
2018-05-12T05:29:06.949Z,1014.06
2018-05-12T05:29:47.508Z,1014.13
2018-05-12T05:30:28.091Z,1014.09
2018-05-12T05:31:08.633Z,1014.15
2018-05-12T05:31:49.198Z,1014.08
2018-05-12T05:32:29.754Z,1014.01
2018-05-12T05:33:10.327Z,1014.08
2018-05-12T05:33:50.892Z,1014.17
2018-05-12T05:34:31.456Z,1014.22
2018-05-12T05:35:12.113Z,1014.26
2018-05-12T05:35:52.594Z,1014.3
2018-05-12T05:36:33.153Z,1014.29
2018-05-12T05:37:13.716Z,1014.25
2018-05-12T05:37:54.271Z,1014.29
2018-05-12T05:38:34.827Z,1014.32
2018-05-12T05:39:15.378Z,1014.34
2018-05-12T05:39:55.932Z,1014.4
2018-05-12T05:40:36.477Z,1014.44
2018-05-12T05:41:17.082Z,1014.5
2018-05-12T05:41:57.641Z,1014.54
2018-05-12T05:42:38.227Z,1014.53
2018-05-12T05:43:18.791Z,1014.55
2018-05-12T05:43:59.367Z,1014.53
2018-05-12T05:44:39.956Z,1014.55
2018-05-12T05:45:20.525Z,1014.58
2018-05-12T05:46:01.092Z,1014.6
2018-05-12T05:46:41.658Z,1014.61
2018-05-12T05:47:22.224Z,1014.56
2018-05-12T05:48:02.769Z,1014.64
2018-05-12T05:48:43.331Z,1014.66
2018-05-12T05:49:23.910Z,1014.67
2018-05-12T05:50:04.494Z,1014.64
2018-05-12T05:50:45.049Z,1014.66
2018-05-12T05:51:25.613Z,1014.72
2018-05-12T05:52:06.190Z,1014.73
2018-05-12T05:52:46.767Z,1014.75
2018-05-12T05:53:27.342Z,1014.72
2018-05-12T05:54:07.912Z,1014.75
2018-05-12T05:54:48.501Z,1014.74
2018-05-12T05:55:29.070Z,1014.73
2018-05-12T05:56:09.634Z,1014.74
2018-05-12T05:56:50.237Z,1014.77
2018-05-12T05:57:30.780Z,1014.75
2018-05-12T05:58:11.351Z,1014.76
2018-05-12T05:58:51.933Z,1014.77
2018-05-12T05:59:32.505Z,1014.77
2018-05-12T06:00:13.059Z,1014.85
2018-05-12T06:00:53.630Z,1014.86
2018-05-12T06:01:34.185Z,1014.89
2018-05-12T06:02:14.753Z,1014.93
2018-05-12T06:02:55.328Z,1014.9
2018-05-12T06:03:35.897Z,1014.75
2018-05-12T06:04:16.456Z,1014.77
2018-05-12T06:04:57.042Z,1014.84
2018-05-12T06:05:37.630Z,1014.95
2018-05-12T06:06:18.202Z,1014.98
2018-05-12T06:06:58.782Z,1015.02
2018-05-12T06:07:39.343Z,1014.9
2018-05-12T06:08:19.904Z,1014.81
2018-05-12T06:09:00.480Z,1014.7
2018-05-12T06:09:41.032Z,1014.62
2018-05-12T06:10:21.598Z,1014.62
2018-05-12T06:11:02.174Z,1014.67
2018-05-12T06:11:42.752Z,1014.65
2018-05-12T06:12:23.324Z,1014.65
2018-05-12T06:13:03.884Z,1014.63
2018-05-12T06:13:44.467Z,1014.64
2018-05-12T06:14:25.063Z,1014.64
2018-05-12T06:15:05.621Z,1014.67
2018-05-12T06:15:46.182Z,1014.65
2018-05-12T06:16:26.749Z,1014.65
2018-05-12T06:17:07.316Z,1014.67
2018-05-12T06:17:47.903Z,1014.61
2018-05-12T06:18:28.466Z,1014.62
2018-05-12T06:19:09.030Z,1014.59
2018-05-12T06:19:49.604Z,1014.57
2018-05-12T06:20:30.179Z,1014.58
2018-05-12T06:21:10.737Z,1014.6
2018-05-12T06:21:51.300Z,1014.61
2018-05-12T06:22:31.871Z,1014.58
2018-05-12T06:23:12.429Z,1014.6
2018-05-12T06:23:53.006Z,1014.59
2018-05-12T06:24:33.580Z,1014.64
2018-05-12T06:25:14.142Z,1014.61
2018-05-12T06:25:54.704Z,1014.63
2018-05-12T06:26:35.278Z,1014.62
2018-05-12T06:27:15.866Z,1014.61
2018-05-12T06:27:56.425Z,1014.57
2018-05-12T06:28:36.995Z,1014.59
2018-05-12T06:29:17.562Z,1014.62
2018-05-12T06:29:58.134Z,1014.63
2018-05-12T06:30:38.711Z,1014.59
2018-05-12T06:31:19.285Z,1014.62
2018-05-12T06:31:59.862Z,1014.56
2018-05-12T06:32:40.420Z,1014.63
2018-05-12T06:33:20.996Z,1014.63
2018-05-12T06:34:01.586Z,1014.65
2018-05-12T06:34:42.156Z,1014.63
2018-05-12T06:35:22.738Z,1014.6
2018-05-12T06:36:03.293Z,1014.63
2018-05-12T06:36:43.868Z,1014.62
2018-05-12T06:37:24.447Z,1014.62
2018-05-12T06:38:05.022Z,1014.61
2018-05-12T06:38:45.584Z,1014.62
2018-05-12T06:39:26.134Z,1014.6
2018-05-12T06:40:06.711Z,1014.63
2018-05-12T06:40:47.262Z,1014.61
2018-05-12T06:41:27.843Z,1014.61
2018-05-12T06:42:08.419Z,1014.58
2018-05-12T06:42:48.998Z,1014.58
2018-05-12T06:43:29.598Z,1014.59
2018-05-12T06:44:10.158Z,1014.61
2018-05-12T06:44:50.744Z,1014.56
2018-05-12T06:45:31.362Z,1014.6
2018-05-12T06:46:11.934Z,1014.6
2018-05-12T06:46:52.502Z,1014.64
2018-05-12T06:47:33.065Z,1014.63
2018-05-12T06:48:13.664Z,1014.64
2018-05-12T06:48:54.203Z,1014.65
2018-05-12T06:49:34.779Z,1014.62
2018-05-12T06:50:15.333Z,1014.65
2018-05-12T06:50:55.901Z,1014.64
2018-05-12T06:51:36.472Z,1014.65
2018-05-12T06:52:17.031Z,1014.7
2018-05-12T06:52:57.595Z,1014.65
2018-05-12T06:53:38.172Z,1014.68
2018-05-12T06:54:18.749Z,1014.67
2018-05-12T06:54:59.336Z,1014.66
2018-05-12T06:55:39.972Z,1014.66
2018-05-12T06:56:20.560Z,1014.66
2018-05-12T06:57:01.129Z,1014.63
2018-05-12T06:57:41.708Z,1014.64
2018-05-12T06:58:22.273Z,1014.6
2018-05-12T06:59:02.850Z,1014.58
2018-05-12T06:59:43.402Z,1014.61
2018-05-12T07:00:23.970Z,1014.57
2018-05-12T07:01:04.549Z,1014.59
2018-05-12T07:01:45.124Z,1014.57
2018-05-12T07:02:25.692Z,1014.61
2018-05-12T07:03:06.242Z,1014.56
2018-05-12T07:03:46.811Z,1014.58
2018-05-12T07:04:27.391Z,1014.58
2018-05-12T07:05:07.949Z,1014.57
2018-05-12T07:05:48.502Z,1014.57
2018-05-12T07:06:29.096Z,1014.59
2018-05-12T07:07:09.670Z,1014.55
2018-05-12T07:07:50.295Z,1014.58
2018-05-12T07:08:30.873Z,1014.57
2018-05-12T07:09:11.437Z,1014.57
2018-05-12T07:09:52.013Z,1014.54
2018-05-12T07:10:32.588Z,1014.59
2018-05-12T07:11:13.155Z,1014.57
2018-05-12T07:11:53.728Z,1014.58
2018-05-12T07:12:34.381Z,1014.56
2018-05-12T07:13:14.964Z,1014.6
2018-05-12T07:13:55.529Z,1014.61
2018-05-12T07:14:36.964Z,1014.62
2018-05-12T07:15:17.475Z,1014.7
2018-05-12T07:15:58.053Z,1014.59
2018-05-12T07:16:38.608Z,1014.64
2018-05-12T07:17:19.196Z,1014.7
2018-05-12T07:17:59.769Z,1014.63
2018-05-12T07:18:40.343Z,1014.64
2018-05-12T07:19:20.925Z,1014.63
2018-05-12T07:20:01.520Z,1014.62
2018-05-12T07:20:42.090Z,1014.62
2018-05-12T07:21:23.089Z,1014.54
2018-05-12T07:22:03.683Z,1014.69
2018-05-12T07:22:44.234Z,1014.59
2018-05-12T07:23:24.813Z,1014.58
2018-05-12T07:24:05.362Z,1014.63
2018-05-12T07:24:45.913Z,1014.59
2018-05-12T07:25:26.487Z,1014.6
2018-05-12T07:26:07.043Z,1014.62
2018-05-12T07:26:47.625Z,1014.63
2018-05-12T07:27:28.220Z,1014.67
2018-05-12T07:28:08.790Z,1014.73
2018-05-12T07:28:49.372Z,1014.72
2018-05-12T07:29:29.928Z,1014.7
2018-05-12T07:30:10.540Z,1014.71
2018-05-12T07:30:51.111Z,1014.69
2018-05-12T07:31:31.693Z,1014.73
2018-05-12T07:32:12.261Z,1014.67
2018-05-12T07:32:52.832Z,1014.74
2018-05-12T07:33:33.393Z,1014.69
2018-05-12T07:34:13.958Z,1014.73
2018-05-12T07:34:54.532Z,1014.64
2018-05-12T07:35:35.122Z,1014.63
2018-05-12T07:36:15.698Z,1014.59
2018-05-12T07:36:56.263Z,1014.62
2018-05-12T07:37:36.854Z,1014.62
2018-05-12T07:38:17.423Z,1014.6
2018-05-12T07:38:58.075Z,1014.58
2018-05-12T07:39:38.656Z,1014.6
2018-05-12T07:40:19.233Z,1014.56
2018-05-12T07:40:59.810Z,1014.6
2018-05-12T07:41:40.377Z,1014.58
2018-05-12T07:42:20.983Z,1014.61
2018-05-12T07:43:01.537Z,1014.6
2018-05-12T07:43:42.088Z,1014.57
2018-05-12T07:44:22.674Z,1014.55
2018-05-12T07:45:03.311Z,1014.56
2018-05-12T07:45:43.824Z,1014.59
2018-05-12T07:46:24.401Z,1014.62
2018-05-12T07:47:04.970Z,1014.6
2018-05-12T07:47:45.620Z,1014.59
2018-05-12T07:48:26.198Z,1014.61
2018-05-12T07:49:06.772Z,1014.61
2018-05-12T07:49:47.360Z,1014.63
2018-05-12T07:50:27.930Z,1014.61
2018-05-12T07:51:08.496Z,1014.65
2018-05-12T07:51:49.056Z,1014.63
2018-05-12T07:52:29.648Z,1014.62
2018-05-12T07:53:10.228Z,1014.64
2018-05-12T07:53:50.799Z,1014.64
2018-05-12T07:54:31.376Z,1014.59
2018-05-12T07:55:11.975Z,1014.59
2018-05-12T07:55:52.557Z,1014.58
2018-05-12T07:56:33.297Z,1014.64
2018-05-12T07:57:13.994Z,1014.62
2018-05-12T07:57:54.650Z,1014.63
2018-05-12T07:58:35.212Z,1014.64
2018-05-12T07:59:15.786Z,1014.63
2018-05-12T07:59:56.381Z,1014.6
2018-05-12T08:00:36.948Z,1014.61
2018-05-12T08:01:17.508Z,1014.58
2018-05-12T08:01:58.081Z,1014.55
2018-05-12T08:02:38.640Z,1014.61
2018-05-12T08:03:19.234Z,1014.56
2018-05-12T08:03:59.822Z,1014.57
2018-05-12T08:04:40.377Z,1014.56
2018-05-12T08:05:20.945Z,1014.53
2018-05-12T08:06:01.513Z,1014.51
2018-05-12T08:06:42.119Z,1014.49
2018-05-12T08:07:22.705Z,1014.53
2018-05-12T08:08:03.271Z,1014.53
2018-05-12T08:08:43.827Z,1014.51
2018-05-12T08:09:24.414Z,1014.5
2018-05-12T08:10:04.977Z,1014.49
2018-05-12T08:10:45.542Z,1014.49
2018-05-12T08:11:26.111Z,1014.5
2018-05-12T08:12:06.680Z,1014.51
2018-05-12T08:12:47.331Z,1014.56